Time,TemperatureF,DewpointF,PressureIn,WindDirection,WindDirectionDegrees,WindSpeedMPH,WindSpeedGustMPH,Humidity,HourlyPrecipIn,Conditions,Clouds,dailyrainin,SoftwareType,DateUTC
2013-12-13 00:00:00,15.3,6.2,30.12,West,280,3.2,8.7,66,0.00,,,-99.99,rabbit1wire,2013-12-13 05:00:00,
2013-12-13 01:59:00,16.5,7.8,30.12,WNW,295,1.7,5.0,67,0.00,,,-99.99,rabbit1wire,2013-12-13 06:59:00,
2013-12-13 02:04:00,16.4,7.8,30.11,West,277,2.4,6.8,68,0.00,,,-99.99,rabbit1wire,2013-12-13 07:04:00,
2013-12-13 02:10:00,16.4,7.8,30.11,WNW,292,0.8,1.8,68,0.00,,,-99.99,rabbit1wire,2013-12-13 07:10:00,
2013-12-13 02:15:00,16.2,7.7,30.11,WNW,303,1.9,4.0,68,0.00,,,-99.99,rabbit1wire,2013-12-13 07:15:00,
2013-12-13 02:21:00,16.4,8.0,30.11,WNW,293,2.1,4.8,68,0.00,,,-99.99,rabbit1wire,2013-12-13 07:21:00,
2013-12-13 02:26:00,16.4,8.0,30.11,WNW,291,1.7,3.7,68,0.00,,,-99.99,rabbit1wire,2013-12-13 07:26:00,
2013-12-13 02:32:00,16.2,7.9,30.12,NW,314,1.8,3.2,68,0.00,,,-99.99,rabbit1wire,2013-12-13 07:32:00,
2013-12-13 02:37:00,16.2,7.8,30.12,NW,311,1.9,2.9,68,0.00,,,-99.99,rabbit1wire,2013-12-13 07:37:00,
2013-12-13 02:42:00,16.5,8.3,30.11,WNW,300,2.0,6.4,69,0.00,,,-99.99,rabbit1wire,2013-12-13 07:42:00,
2013-12-13 02:48:00,16.6,8.2,30.12,NW,308,2.4,2.8,68,0.00,,,-99.99,rabbit1wire,2013-12-13 07:48:00,
2013-12-13 02:53:00,16.9,8.4,30.10,NW,307,1.7,3.8,68,0.00,,,-99.99,rabbit1wire,2013-12-13 07:53:00,
2013-12-13 02:59:00,17.0,8.2,30.07,NW,315,3.1,4.3,67,0.00,,,-99.99,rabbit1wire,2013-12-13 07:59:00,
2013-12-13 03:04:00,17.2,8.4,30.07,NW,313,2.2,4.1,67,0.00,,,-99.99,rabbit1wire,2013-12-13 08:04:00,
2013-12-13 03:09:00,16.9,8.4,30.11,WNW,298,1.6,3.0,68,0.00,,,-99.99,rabbit1wire,2013-12-13 08:09:00,
2013-12-13 03:15:00,16.9,8.3,30.11,NW,326,2.1,4.8,68,0.00,,,-99.99,rabbit1wire,2013-12-13 08:15:00,
2013-12-13 03:21:00,17.1,8.4,30.11,NW,318,2.6,4.8,67,0.00,,,-99.99,rabbit1wire,2013-12-13 08:21:00,
2013-12-13 03:26:00,17.1,8.6,30.11,WNW,299,2.5,3.4,68,0.00,,,-99.99,rabbit1wire,2013-12-13 08:26:00,
2013-12-13 03:31:00,17.1,8.7,30.11,WNW,297,2.2,5.4,68,0.00,,,-99.99,rabbit1wire,2013-12-13 08:31:00,
2013-12-13 03:37:00,17.2,8.6,30.10,NW,309,1.8,2.8,68,0.00,,,-99.99,rabbit1wire,2013-12-13 08:37:00,
2013-12-13 03:42:00,17.0,8.6,30.12,WNW,291,1.6,3.4,68,0.00,,,-99.99,rabbit1wire,2013-12-13 08:42:00,
2013-12-13 03:48:00,17.1,8.9,30.11,NW,310,1.9,2.6,69,0.00,,,-99.99,rabbit1wire,2013-12-13 08:48:00,
2013-12-13 03:53:00,17.3,9.0,30.09,NW,312,2.0,5.0,69,0.00,,,-99.99,rabbit1wire,2013-12-13 08:53:00,
2013-12-13 03:58:00,17.4,9.0,30.09,WNW,300,2.2,2.6,68,0.00,,,-99.99,rabbit1wire,2013-12-13 08:58:00,
2013-12-13 04:04:00,17.7,9.2,30.11,WNW,292,1.4,6.1,68,0.00,,,-99.99,rabbit1wire,2013-12-13 09:04:00,
2013-12-13 04:09:00,18.0,9.7,30.11,WNW,301,2.2,4.2,69,0.00,,,-99.99,rabbit1wire,2013-12-13 09:09:00,
2013-12-13 04:15:00,18.0,9.6,30.07,NW,309,2.2,4.1,69,0.00,,,-99.99,rabbit1wire,2013-12-13 09:15:00,
2013-12-13 04:20:00,18.2,9.7,30.07,NW,311,3.1,4.5,68,0.00,,,-99.99,rabbit1wire,2013-12-13 09:20:00,
2013-12-13 04:25:00,18.6,9.7,30.09,WNW,301,3.7,6.6,67,0.00,,,-99.99,rabbit1wire,2013-12-13 09:25:00,
2013-12-13 04:31:00,18.8,9.9,30.11,NW,324,4.4,10.8,67,0.00,,,-99.99,rabbit1wire,2013-12-13 09:31:00,
2013-12-13 04:36:00,19.0,10.0,30.07,NW,307,3.7,6.2,67,0.00,,,-99.99,rabbit1wire,2013-12-13 09:36:00,
2013-12-13 04:42:00,19.0,10.4,30.07,WNW,299,4.1,8.4,68,0.00,,,-99.99,rabbit1wire,2013-12-13 09:42:00,
2013-12-13 04:47:00,19.1,10.4,30.11,NW,313,4.2,7.4,68,0.00,,,-99.99,rabbit1wire,2013-12-13 09:47:00,
2013-12-13 04:53:00,19.1,10.3,30.09,NW,312,3.0,4.1,68,0.00,,,-99.99,rabbit1wire,2013-12-13 09:53:00,
2013-12-13 04:58:00,19.2,10.2,30.11,NW,309,3.3,8.0,67,0.00,,,-99.99,rabbit1wire,2013-12-13 09:58:00,
2013-12-13 05:03:00,19.1,10.1,30.09,NW,307,3.3,3.5,67,0.00,,,-99.99,rabbit1wire,2013-12-13 10:03:00,
2013-12-13 05:09:00,19.0,10.2,30.11,WNW,292,2.5,3.7,68,0.00,,,-99.99,rabbit1wire,2013-12-13 10:09:00,
2013-12-13 05:15:00,18.8,10.4,30.11,WNW,301,2.8,4.1,69,0.00,,,-99.99,rabbit1wire,2013-12-13 10:15:00,
2013-12-13 05:21:00,18.8,10.5,30.07,WNW,301,2.2,3.2,69,0.00,,,-99.99,rabbit1wire,2013-12-13 10:21:00,
2013-12-13 05:26:00,18.9,10.6,30.07,WNW,302,1.7,3.3,69,0.00,,,-99.99,rabbit1wire,2013-12-13 10:26:00,
2013-12-13 05:31:00,19.1,11.0,30.09,NW,304,3.7,5.2,70,0.00,,,-99.99,rabbit1wire,2013-12-13 10:31:00,
2013-12-13 05:37:00,19.0,10.8,30.11,WNW,301,1.9,3.4,69,0.00,,,-99.99,rabbit1wire,2013-12-13 10:37:00,
2013-12-13 05:42:00,19.0,11.0,30.09,NW,305,2.1,3.2,70,0.00,,,-99.99,rabbit1wire,2013-12-13 10:42:00,
2013-12-13 05:48:00,19.2,11.2,30.10,WNW,284,2.5,5.8,70,0.00,,,-99.99,rabbit1wire,2013-12-13 10:48:00,
2013-12-13 05:53:00,19.2,11.1,30.09,NW,304,3.3,4.2,70,0.00,,,-99.99,rabbit1wire,2013-12-13 10:53:00,
2013-12-13 05:58:00,19.3,11.5,30.07,WNW,301,2.7,6.2,70,0.00,,,-99.99,rabbit1wire,2013-12-13 10:58:00,
2013-12-13 06:04:00,19.3,11.5,30.11,WNW,297,2.6,4.2,70,0.00,,,-99.99,rabbit1wire,2013-12-13 11:04:00,
2013-12-13 06:09:00,19.2,11.5,30.11,WNW,293,2.2,6.4,71,0.00,,,-99.99,rabbit1wire,2013-12-13 11:09:00,
2013-12-13 06:14:00,19.2,11.5,30.09,NW,310,2.5,3.7,71,0.00,,,-99.99,rabbit1wire,2013-12-13 11:14:00,
2013-12-13 06:20:00,19.3,11.5,30.11,WNW,295,2.3,3.5,70,0.00,,,-99.99,rabbit1wire,2013-12-13 11:20:00,
2013-12-13 06:25:00,19.2,11.6,30.09,WNW,291,2.8,4.8,71,0.00,,,-99.99,rabbit1wire,2013-12-13 11:25:00,
2013-12-13 06:30:00,19.3,11.7,30.11,WNW,298,2.7,4.1,71,0.00,,,-99.99,rabbit1wire,2013-12-13 11:30:00,
2013-12-13 06:36:00,19.5,11.7,30.11,NW,312,2.8,5.5,71,0.00,,,-99.99,rabbit1wire,2013-12-13 11:36:00,
2013-12-13 06:41:00,19.6,12.0,30.12,NW,306,3.3,5.1,71,0.00,,,-99.99,rabbit1wire,2013-12-13 11:41:00,
2013-12-13 06:47:00,19.5,12.1,30.11,WNW,292,3.0,4.8,72,0.00,,,-99.99,rabbit1wire,2013-12-13 11:47:00,
2013-12-13 06:52:00,19.5,11.9,30.10,WNW,300,3.6,8.1,71,0.00,,,-99.99,rabbit1wire,2013-12-13 11:52:00,
2013-12-13 06:57:00,19.6,12.0,30.09,NW,309,4.6,7.1,71,0.00,,,-99.99,rabbit1wire,2013-12-13 11:57:00,
2013-12-13 07:08:00,19.9,11.9,30.11,NW,306,3.3,4.8,70,0.00,,,-99.99,rabbit1wire,2013-12-13 12:08:00,
2013-12-13 07:14:00,19.9,11.8,30.10,WNW,301,3.8,8.6,70,0.00,,,-99.99,rabbit1wire,2013-12-13 12:14:00,
2013-12-13 07:19:00,19.9,11.8,30.12,WNW,302,3.9,6.1,70,0.00,,,-99.99,rabbit1wire,2013-12-13 12:19:00,
2013-12-13 07:24:00,20.1,12.0,30.11,NW,306,4.7,8.0,70,0.00,,,-99.99,rabbit1wire,2013-12-13 12:24:00,
2013-12-13 07:30:00,20.1,12.1,30.12,NW,314,4.2,6.2,70,0.00,,,-99.99,rabbit1wire,2013-12-13 12:30:00,
2013-12-13 07:35:00,20.1,11.9,30.11,WNW,299,3.8,6.6,69,0.00,,,-99.99,rabbit1wire,2013-12-13 12:35:00,
2013-12-13 07:41:00,20.0,11.8,30.11,NW,308,2.7,6.4,69,0.00,,,-99.99,rabbit1wire,2013-12-13 12:41:00,
2013-12-13 07:46:00,20.0,11.5,30.12,WNW,296,3.8,5.2,69,0.00,,,-99.99,rabbit1wire,2013-12-13 12:46:00,
2013-12-13 07:51:00,20.1,11.8,30.12,NW,309,3.5,5.5,69,0.00,,,-99.99,rabbit1wire,2013-12-13 12:51:00,
2013-12-13 07:57:00,20.4,12.0,30.12,NW,309,3.9,6.4,69,0.00,,,-99.99,rabbit1wire,2013-12-13 12:57:00,
2013-12-13 08:02:00,20.4,12.0,30.12,NW,308,4.6,7.2,69,0.00,,,-99.99,rabbit1wire,2013-12-13 13:02:00,
2013-12-13 08:08:00,20.7,12.1,30.12,NW,312,3.4,5.1,68,0.00,,,-99.99,rabbit1wire,2013-12-13 13:08:00,
2013-12-13 08:13:00,20.6,11.9,30.12,NW,318,3.3,7.8,68,0.00,,,-99.99,rabbit1wire,2013-12-13 13:13:00,
2013-12-13 08:18:00,20.9,12.6,30.12,NW,318,2.8,3.5,69,0.00,,,-99.99,rabbit1wire,2013-12-13 13:18:00,
2013-12-13 08:23:00,21.0,12.2,30.14,NW,312,2.5,10.4,68,0.00,,,-99.99,rabbit1wire,2013-12-13 13:23:00,
2013-12-13 08:28:00,21.1,12.3,30.11,WNW,303,4.2,10.4,68,0.00,,,-99.99,rabbit1wire,2013-12-13 13:28:00,
2013-12-13 08:34:00,21.5,12.7,30.11,WNW,303,2.6,3.9,68,0.00,,,-99.99,rabbit1wire,2013-12-13 13:34:00,
2013-12-13 08:39:00,21.6,12.8,30.15,WNW,300,2.5,4.3,68,0.00,,,-99.99,rabbit1wire,2013-12-13 13:39:00,
2013-12-13 08:44:00,21.7,12.5,30.12,WNW,299,2.2,4.5,67,0.00,,,-99.99,rabbit1wire,2013-12-13 13:44:00,
2013-12-13 08:50:00,21.9,12.4,30.14,NW,313,3.4,5.7,66,0.00,,,-99.99,rabbit1wire,2013-12-13 13:50:00,
2013-12-13 08:55:00,22.2,12.7,30.14,NW,312,3.3,4.1,66,0.00,,,-99.99,rabbit1wire,2013-12-13 13:55:00,
2013-12-13 09:01:00,22.2,12.5,30.12,NW,307,2.8,5.7,65,0.00,,,-99.99,rabbit1wire,2013-12-13 14:01:00,
2013-12-13 09:06:00,22.3,12.5,30.12,NW,324,4.1,8.7,65,0.00,,,-99.99,rabbit1wire,2013-12-13 14:06:00,
2013-12-13 09:12:00,22.4,12.7,30.12,NNW,332,4.6,8.7,65,0.00,,,-99.99,rabbit1wire,2013-12-13 14:12:00,
2013-12-13 09:17:00,22.8,13.2,30.16,NNW,330,4.2,5.9,65,0.00,,,-99.99,rabbit1wire,2013-12-13 14:17:00,
2013-12-13 09:22:00,22.8,12.9,30.15,NW,312,3.0,6.6,65,0.00,,,-99.99,rabbit1wire,2013-12-13 14:22:00,
2013-12-13 09:28:00,22.9,12.9,30.15,NNW,327,4.1,8.6,64,0.00,,,-99.99,rabbit1wire,2013-12-13 14:28:00,
2013-12-13 09:33:00,22.9,13.3,30.14,NNW,333,4.8,7.3,65,0.00,,,-99.99,rabbit1wire,2013-12-13 14:33:00,
2013-12-13 09:38:00,23.0,13.0,30.12,NW,319,3.1,11.3,64,0.00,,,-99.99,rabbit1wire,2013-12-13 14:38:00,
2013-12-13 09:44:00,23.0,13.5,30.12,NW,324,4.0,6.9,66,0.00,,,-99.99,rabbit1wire,2013-12-13 14:44:00,
2013-12-13 09:49:00,22.8,13.3,30.16,NW,321,3.9,5.1,66,0.00,,,-99.99,rabbit1wire,2013-12-13 14:49:00,
2013-12-13 09:55:00,22.9,13.6,30.15,NW,318,3.4,4.5,66,0.00,,,-99.99,rabbit1wire,2013-12-13 14:55:00,
2013-12-13 10:00:00,23.1,13.7,30.15,NW,317,2.5,3.5,66,0.00,,,-99.99,rabbit1wire,2013-12-13 15:00:00,
2013-12-13 10:05:00,23.5,14.6,30.14,NW,324,4.1,9.0,68,0.00,,,-99.99,rabbit1wire,2013-12-13 15:05:00,
2013-12-13 10:11:00,23.5,14.0,30.16,NW,310,3.3,7.8,66,0.00,,,-99.99,rabbit1wire,2013-12-13 15:11:00,
2013-12-13 10:16:00,23.8,14.1,30.12,NW,313,3.1,3.9,65,0.00,,,-99.99,rabbit1wire,2013-12-13 15:16:00,
2013-12-13 10:21:00,23.5,13.7,30.15,NW,325,3.5,7.9,65,0.00,,,-99.99,rabbit1wire,2013-12-13 15:21:00,
2013-12-13 10:27:00,24.2,14.5,30.16,NW,318,3.2,3.4,65,0.00,,,-99.99,rabbit1wire,2013-12-13 15:27:00,
2013-12-13 10:32:00,24.6,14.2,30.16,NW,306,2.6,6.4,64,0.00,,,-99.99,rabbit1wire,2013-12-13 15:32:00,
2013-12-13 10:38:00,24.6,14.3,30.16,NW,318,4.0,5.3,64,0.00,,,-99.99,rabbit1wire,2013-12-13 15:38:00,
2013-12-13 10:43:00,25.2,14.6,30.15,NW,321,2.8,7.7,63,0.00,,,-99.99,rabbit1wire,2013-12-13 15:43:00,
2013-12-13 10:49:00,24.6,14.8,30.16,NW,318,4.2,8.0,65,0.00,,,-99.99,rabbit1wire,2013-12-13 15:49:00,
2013-12-13 10:54:00,24.9,14.7,30.15,NW,314,4.0,6.2,64,0.00,,,-99.99,rabbit1wire,2013-12-13 15:54:00,
2013-12-13 10:59:00,25.4,15.1,30.16,NW,322,3.6,6.1,64,0.00,,,-99.99,rabbit1wire,2013-12-13 15:59:00,
2013-12-13 11:05:00,25.4,14.6,30.15,NW,322,4.5,7.3,62,0.00,,,-99.99,rabbit1wire,2013-12-13 16:05:00,
2013-12-13 11:10:00,25.2,14.8,30.15,NW,312,3.7,5.1,63,0.00,,,-99.99,rabbit1wire,2013-12-13 16:10:00,
2013-12-13 11:15:00,25.1,14.8,30.15,NW,313,3.9,5.5,64,0.00,,,-99.99,rabbit1wire,2013-12-13 16:15:00,
2013-12-13 11:21:00,25.2,15.1,30.15,NW,314,3.3,9.0,64,0.00,,,-99.99,rabbit1wire,2013-12-13 16:21:00,
2013-12-13 11:26:00,25.2,15.3,30.16,NNW,330,4.1,10.3,65,0.00,,,-99.99,rabbit1wire,2013-12-13 16:26:00,
2013-12-13 11:31:00,25.0,15.3,30.15,NNW,333,4.5,5.4,66,0.00,,,-99.99,rabbit1wire,2013-12-13 16:31:00,
2013-12-13 11:37:00,24.7,15.2,30.15,NW,313,2.4,7.3,66,0.00,,,-99.99,rabbit1wire,2013-12-13 16:37:00,
2013-12-13 11:42:00,24.7,15.5,30.15,NW,326,4.1,4.7,67,0.00,,,-99.99,rabbit1wire,2013-12-13 16:42:00,
2013-12-13 11:47:00,24.6,15.6,30.12,NW,313,3.0,3.9,67,0.00,,,-99.99,rabbit1wire,2013-12-13 16:47:00,
2013-12-13 11:53:00,24.1,15.8,30.12,NW,318,3.1,4.6,70,0.00,,,-99.99,rabbit1wire,2013-12-13 16:53:00,
2013-12-13 11:58:00,23.8,16.3,30.16,NW,314,4.2,4.2,72,0.00,,,-99.99,rabbit1wire,2013-12-13 16:58:00,
2013-12-13 12:03:00,23.9,17.1,30.15,NW,322,1.8,4.8,74,0.00,,,-99.99,rabbit1wire,2013-12-13 17:03:00,
2013-12-13 12:09:00,23.8,17.2,30.16,NW,321,2.9,6.1,75,0.00,,,-99.99,rabbit1wire,2013-12-13 17:09:00,
2013-12-13 12:14:00,23.8,17.3,30.19,NW,316,2.9,3.3,75,0.00,,,-99.99,rabbit1wire,2013-12-13 17:14:00,
2013-12-13 12:20:00,23.5,17.8,30.16,NW,312,2.2,5.0,78,0.00,,,-99.99,rabbit1wire,2013-12-13 17:20:00,
2013-12-13 12:25:00,23.3,18.1,30.16,NW,323,3.4,6.8,80,0.00,,,-99.99,rabbit1wire,2013-12-13 17:25:00,
2013-12-13 12:30:00,23.4,18.5,30.15,NNW,333,2.7,5.3,81,0.00,,,-99.99,rabbit1wire,2013-12-13 17:30:00,
2013-12-13 12:36:00,23.2,18.4,30.19,NW,325,2.3,3.8,81,0.00,,,-99.99,rabbit1wire,2013-12-13 17:36:00,
2013-12-13 12:41:00,23.1,18.4,30.16,NW,312,2.1,3.3,81,0.00,,,-99.99,rabbit1wire,2013-12-13 17:41:00,
2013-12-13 12:47:00,23.3,19.1,30.19,NW,312,2.4,5.5,83,0.00,,,-99.99,rabbit1wire,2013-12-13 17:47:00,
2013-12-13 12:52:00,23.5,19.3,30.19,NW,326,3.1,6.3,83,0.00,,,-99.99,rabbit1wire,2013-12-13 17:52:00,
2013-12-13 12:57:00,24.1,19.5,30.17,NW,326,2.0,3.5,82,0.00,,,-99.99,rabbit1wire,2013-12-13 17:57:00,
2013-12-13 13:03:00,24.1,19.3,30.17,NW,310,2.2,3.5,81,0.00,,,-99.99,rabbit1wire,2013-12-13 18:03:00,
2013-12-13 13:08:00,24.1,19.3,30.19,NNW,327,2.4,7.8,81,0.00,,,-99.99,rabbit1wire,2013-12-13 18:08:00,
2013-12-13 13:13:00,23.5,19.1,30.17,NNW,332,3.8,7.4,83,0.00,,,-99.99,rabbit1wire,2013-12-13 18:13:00,
2013-12-13 13:19:00,22.9,19.1,30.17,NNW,328,4.0,9.3,85,0.00,,,-99.99,rabbit1wire,2013-12-13 18:19:00,
2013-12-13 13:24:00,21.7,18.8,30.19,North,351,7.1,14.6,88,0.00,,,-99.99,rabbit1wire,2013-12-13 18:24:00,
2013-12-13 13:29:00,21.0,19.0,30.19,North,349,8.1,8.2,91,0.00,,,-99.99,rabbit1wire,2013-12-13 18:29:00,
2013-12-13 13:35:00,21.0,19.4,30.19,NNW,339,4.2,6.3,93,0.00,,,-99.99,rabbit1wire,2013-12-13 18:35:00,
2013-12-13 13:40:00,20.9,19.5,30.22,NNW,332,4.6,8.1,93,0.00,,,-99.99,rabbit1wire,2013-12-13 18:40:00,
2013-12-13 13:46:00,20.8,19.1,30.20,NNW,341,3.5,6.7,92,0.00,,,-99.99,rabbit1wire,2013-12-13 18:46:00,
2013-12-13 13:51:00,21.2,19.0,30.20,North,354,5.4,8.4,91,0.00,,,-99.99,rabbit1wire,2013-12-13 18:51:00,
2013-12-13 13:56:00,21.3,17.9,30.20,North,357,6.7,10.0,86,0.00,,,-99.99,rabbit1wire,2013-12-13 18:56:00,
2013-12-13 14:02:00,21.0,16.4,30.19,North,358,8.2,10.3,81,0.00,,,-99.99,rabbit1wire,2013-12-13 19:02:00,
2013-12-13 14:07:00,20.6,15.6,30.19,North,354,7.6,9.4,80,0.00,,,-99.99,rabbit1wire,2013-12-13 19:07:00,
2013-12-13 14:13:00,20.6,15.6,30.20,North,352,8.2,10.7,80,0.00,,,-99.99,rabbit1wire,2013-12-13 19:13:00,
2013-12-13 14:18:00,20.6,15.4,30.19,North,3,8.6,13.0,79,0.00,,,-99.99,rabbit1wire,2013-12-13 19:18:00,
2013-12-13 14:23:00,21.5,15.4,30.20,North,358,9.8,11.7,76,0.00,,,-99.99,rabbit1wire,2013-12-13 19:23:00,
2013-12-13 14:29:00,21.1,14.3,30.22,North,354,7.1,11.0,74,0.00,,,-99.99,rabbit1wire,2013-12-13 19:29:00,
2013-12-13 14:34:00,20.5,13.8,30.22,NNW,336,6.7,9.8,74,0.00,,,-99.99,rabbit1wire,2013-12-13 19:34:00,
2013-12-13 14:40:00,19.9,13.7,30.20,North,353,7.2,10.0,76,0.00,,,-99.99,rabbit1wire,2013-12-13 19:40:00,
2013-12-13 14:45:00,19.5,13.2,30.22,NNW,347,6.4,11.7,76,0.00,,,-99.99,rabbit1wire,2013-12-13 19:45:00,
2013-12-13 14:51:00,19.5,13.2,30.24,NNW,339,5.2,8.8,76,0.00,,,-99.99,rabbit1wire,2013-12-13 19:51:00,
2013-12-13 14:56:00,19.3,13.0,30.24,NNW,331,5.4,10.7,75,0.00,,,-99.99,rabbit1wire,2013-12-13 19:56:00,
2013-12-13 15:01:00,19.3,12.7,30.25,NW,321,4.3,6.3,75,0.00,,,-99.99,rabbit1wire,2013-12-13 20:01:00,
2013-12-13 15:07:00,19.5,12.8,30.25,NNW,339,5.3,8.6,74,0.00,,,-99.99,rabbit1wire,2013-12-13 20:07:00,
2013-12-13 15:12:00,19.6,12.7,30.24,NNW,342,3.9,8.2,73,0.00,,,-99.99,rabbit1wire,2013-12-13 20:12:00,
2013-12-13 15:18:00,19.2,12.4,30.24,NNW,327,4.5,8.0,74,0.00,,,-99.99,rabbit1wire,2013-12-13 20:18:00,
2013-12-13 15:23:00,19.3,12.5,30.25,NNW,340,3.6,9.3,74,0.00,,,-99.99,rabbit1wire,2013-12-13 20:23:00,
2013-12-13 15:28:00,18.7,12.1,30.24,North,1,6.5,8.9,74,0.00,,,-99.99,rabbit1wire,2013-12-13 20:28:00,
2013-12-13 15:34:00,18.8,12.1,30.25,North,357,6.0,9.7,74,0.00,,,-99.99,rabbit1wire,2013-12-13 20:34:00,
2013-12-13 15:39:00,18.2,11.8,30.27,North,355,5.3,5.3,75,0.00,,,-99.99,rabbit1wire,2013-12-13 20:39:00,
2013-12-13 15:44:00,18.3,12.1,30.25,NNW,336,2.5,6.4,75,0.00,,,-99.99,rabbit1wire,2013-12-13 20:44:00,
2013-12-13 15:50:00,18.0,11.9,30.27,NW,320,2.3,3.8,76,0.00,,,-99.99,rabbit1wire,2013-12-13 20:50:00,
2013-12-13 15:55:00,17.9,11.7,30.27,NNW,333,2.6,5.9,76,0.00,,,-99.99,rabbit1wire,2013-12-13 20:55:00,
2013-12-13 16:00:00,17.6,11.6,30.29,NW,322,1.7,2.5,76,0.00,,,-99.99,rabbit1wire,2013-12-13 21:00:00,
2013-12-13 16:06:00,17.5,11.7,30.29,NW,325,1.9,3.6,77,0.00,,,-99.99,rabbit1wire,2013-12-13 21:06:00,
2013-12-13 16:11:00,17.2,11.4,30.30,NW,324,0.9,4.9,77,0.00,,,-99.99,rabbit1wire,2013-12-13 21:11:00,
2013-12-13 16:17:00,17.1,11.4,30.27,NNW,343,1.1,2.8,77,0.00,,,-99.99,rabbit1wire,2013-12-13 21:17:00,
2013-12-13 16:22:00,16.9,11.5,30.29,NNW,333,1.0,3.1,78,0.00,,,-99.99,rabbit1wire,2013-12-13 21:22:00,
2013-12-13 16:27:00,16.9,11.3,30.30,NNW,333,1.8,3.7,78,0.00,,,-99.99,rabbit1wire,2013-12-13 21:27:00,
2013-12-13 16:33:00,16.5,11.0,30.30,NW,320,1.3,3.4,78,0.00,,,-99.99,rabbit1wire,2013-12-13 21:33:00,
2013-12-13 16:38:00,16.4,10.9,30.32,NW,317,1.0,3.1,78,0.00,,,-99.99,rabbit1wire,2013-12-13 21:38:00,
2013-12-13 16:43:00,16.2,10.9,30.32,NNW,327,1.3,3.1,78,0.00,,,-99.99,rabbit1wire,2013-12-13 21:43:00,
2013-12-13 16:49:00,15.9,10.6,30.32,NNW,336,2.7,7.1,79,0.00,,,-99.99,rabbit1wire,2013-12-13 21:49:00,
2013-12-13 16:54:00,16.0,10.8,30.30,NW,324,3.5,6.7,79,0.00,,,-99.99,rabbit1wire,2013-12-13 21:54:00,
2013-12-13 16:59:00,15.9,10.8,30.32,NNW,330,3.2,5.9,79,0.00,,,-99.99,rabbit1wire,2013-12-13 21:59:00,
2013-12-13 17:05:00,15.5,10.6,30.34,NNW,329,2.5,6.1,80,0.00,,,-99.99,rabbit1wire,2013-12-13 22:05:00,
2013-12-13 17:10:00,15.5,10.5,30.32,NNW,328,2.4,6.3,80,0.00,,,-99.99,rabbit1wire,2013-12-13 22:10:00,
2013-12-13 17:16:00,15.5,10.0,30.30,NNW,333,3.7,10.8,78,0.00,,,-99.99,rabbit1wire,2013-12-13 22:16:00,
2013-12-13 17:21:00,15.2,9.4,30.34,NNW,341,5.7,10.3,77,0.00,,,-99.99,rabbit1wire,2013-12-13 22:21:00,
2013-12-13 17:26:00,15.2,8.9,30.35,NNW,335,3.1,3.3,75,0.00,,,-99.99,rabbit1wire,2013-12-13 22:26:00,
2013-12-13 17:32:00,15.2,8.2,30.34,NW,325,1.7,9.6,72,0.00,,,-99.99,rabbit1wire,2013-12-13 22:32:00,
2013-12-13 17:37:00,15.2,7.9,30.34,NW,325,2.9,6.0,72,0.00,,,-99.99,rabbit1wire,2013-12-13 22:37:00,
2013-12-13 17:43:00,14.9,7.5,30.34,NNW,330,2.5,5.4,71,0.00,,,-99.99,rabbit1wire,2013-12-13 22:43:00,
2013-12-13 17:48:00,14.8,7.2,30.35,NNW,336,2.4,6.0,71,0.00,,,-99.99,rabbit1wire,2013-12-13 22:48:00,
2013-12-13 17:54:00,14.9,7.2,30.35,NNW,331,3.0,6.3,70,0.00,,,-99.99,rabbit1wire,2013-12-13 22:54:00,
2013-12-13 17:59:00,15.0,6.9,30.35,NNW,344,3.5,7.8,69,0.00,,,-99.99,rabbit1wire,2013-12-13 22:59:00,
2013-12-13 18:05:00,14.8,6.6,30.35,NNW,340,3.8,6.7,69,0.00,,,-99.99,rabbit1wire,2013-12-13 23:05:00,
2013-12-13 18:10:00,15.0,6.5,30.35,NNW,341,3.0,7.8,68,0.00,,,-99.99,rabbit1wire,2013-12-13 23:10:00,
2013-12-13 18:15:00,14.9,6.4,30.34,NW,326,2.6,5.4,68,0.00,,,-99.99,rabbit1wire,2013-12-13 23:15:00,
2013-12-13 18:21:00,15.0,6.3,30.35,NNW,343,3.7,7.4,67,0.00,,,-99.99,rabbit1wire,2013-12-13 23:21:00,
2013-12-13 18:26:00,15.1,6.5,30.37,NNW,341,4.8,8.1,68,0.00,,,-99.99,rabbit1wire,2013-12-13 23:26:00,
2013-12-13 18:32:00,15.1,6.5,30.39,NNW,334,3.3,6.4,68,0.00,,,-99.99,rabbit1wire,2013-12-13 23:32:00,
2013-12-13 18:37:00,15.0,6.5,30.37,NNW,343,3.8,7.3,68,0.00,,,-99.99,rabbit1wire,2013-12-13 23:37:00,
2013-12-13 18:42:00,15.0,6.7,30.35,NNW,341,3.7,5.8,68,0.00,,,-99.99,rabbit1wire,2013-12-13 23:42:00,
2013-12-13 18:47:00,15.0,6.7,30.40,North,351,4.5,7.1,68,0.00,,,-99.99,rabbit1wire,2013-12-13 23:47:00,
2013-12-13 18:53:00,14.8,6.6,30.35,North,354,4.2,5.4,69,0.00,,,-99.99,rabbit1wire,2013-12-13 23:53:00,
2013-12-13 18:58:00,14.9,6.7,30.37,NNW,339,2.3,4.3,69,0.00,,,-99.99,rabbit1wire,2013-12-13 23:58:00,
2013-12-13 19:03:00,14.8,6.6,30.35,NNW,338,2.3,4.4,69,0.00,,,-99.99,rabbit1wire,2013-12-14 00:03:00,
2013-12-13 19:09:00,14.7,6.5,30.38,NW,326,1.8,4.4,69,0.00,,,-99.99,rabbit1wire,2013-12-14 00:09:00,
2013-12-13 19:14:00,14.7,6.8,30.37,NNW,328,1.8,2.5,70,0.00,,,-99.99,rabbit1wire,2013-12-14 00:14:00,
2013-12-13 19:20:00,14.6,6.8,30.42,North,358,1.6,3.7,70,0.00,,,-99.99,rabbit1wire,2013-12-14 00:20:00,
2013-12-13 19:25:00,14.6,6.8,30.40,NNW,344,2.7,4.4,70,0.00,,,-99.99,rabbit1wire,2013-12-14 00:25:00,
2013-12-13 19:30:00,14.6,6.9,30.40,North,358,2.8,4.9,70,0.00,,,-99.99,rabbit1wire,2013-12-14 00:30:00,
2013-12-13 19:35:00,14.6,7.0,30.40,North,356,3.3,5.0,71,0.00,,,-99.99,rabbit1wire,2013-12-14 00:35:00,
2013-12-13 19:40:00,14.5,7.0,30.38,NNW,337,2.0,4.1,71,0.00,,,-99.99,rabbit1wire,2013-12-14 00:40:00,
2013-12-13 19:46:00,14.4,6.9,30.38,North,357,1.4,2.5,71,0.00,,,-99.99,rabbit1wire,2013-12-14 00:46:00,
2013-12-13 19:51:00,14.4,7.2,30.40,North,357,1.9,4.4,72,0.00,,,-99.99,rabbit1wire,2013-12-14 00:51:00,
2013-12-13 19:57:00,14.3,7.2,30.40,North,4,3.2,5.3,72,0.00,,,-99.99,rabbit1wire,2013-12-14 00:57:00,
2013-12-13 20:00:00,14.1,14.1,30.12,SE,142,0.0,0.0,100,0.00,,,-99.99,rabbit1wire,2013-12-14 01:00:00,
2013-12-13 20:02:00,14.2,7.2,30.42,North,3,2.9,4.8,73,0.00,,,-99.99,rabbit1wire,2013-12-14 01:02:00,
2013-12-13 20:05:00,14.2,14.2,30.11,SSE,148,0.0,0.0,100,0.00,,,-99.99,rabbit1wire,2013-12-14 01:05:00,
2013-12-13 20:07:00,14.1,7.3,30.42,NNW,339,1.9,2.2,73,0.00,,,-99.99,rabbit1wire,2013-12-14 01:07:00,
2013-12-13 20:11:00,14.3,14.3,30.12,SE,124,0.0,0.0,100,0.00,,,-99.99,rabbit1wire,2013-12-14 01:11:00,
2013-12-13 20:13:00,14.1,7.6,30.40,NW,323,0.8,2.3,74,0.00,,,-99.99,rabbit1wire,2013-12-14 01:13:00,
2013-12-13 20:16:00,14.6,14.6,30.11,SSE,151,0.0,0.0,100,0.00,,,-99.99,rabbit1wire,2013-12-14 01:16:00,
2013-12-13 20:18:00,14.1,7.7,30.42,NNW,337,1.1,5.0,74,0.00,,,-99.99,rabbit1wire,2013-12-14 01:18:00,
2013-12-13 20:22:00,14.6,14.6,30.12,SE,130,0.0,0.0,100,0.00,,,-99.99,rabbit1wire,2013-12-14 01:22:00,
2013-12-13 20:23:00,14.1,7.7,30.42,NNW,338,2.3,2.9,75,0.00,,,-99.99,rabbit1wire,2013-12-14 01:23:00,
2013-12-13 20:27:00,14.7,14.7,30.11,SSW,195,0.0,0.0,100,0.00,,,-99.99,rabbit1wire,2013-12-14 01:27:00,
2013-12-13 20:29:00,14.1,7.8,30.40,NNW,336,1.4,3.5,75,0.00,,,-99.99,rabbit1wire,2013-12-14 01:29:00,
2013-12-13 20:32:00,14.6,14.6,30.11,SW,226,0.0,0.0,100,0.00,,,-99.99,rabbit1wire,2013-12-14 01:32:00,
2013-12-13 20:34:00,13.9,7.5,30.40,NNW,337,1.8,2.9,75,0.00,,,-99.99,rabbit1wire,2013-12-14 01:34:00,
2013-12-13 20:38:00,14.9,14.9,30.09,South,181,0.0,0.0,100,0.00,,,-99.99,rabbit1wire,2013-12-14 01:38:00,
2013-12-13 20:39:00,14.0,7.7,30.40,NNW,337,1.7,2.1,75,0.00,,,-99.99,rabbit1wire,2013-12-14 01:39:00,
2013-12-13 20:43:00,15.2,15.2,30.07,SSE,161,0.0,0.0,100,0.00,,,-99.99,rabbit1wire,2013-12-14 01:43:00,
2013-12-13 20:45:00,14.1,7.9,30.42,NNW,331,0.8,2.1,75,0.00,,,-99.99,rabbit1wire,2013-12-14 01:45:00,
2013-12-13 20:48:00,15.5,15.5,30.09,ESE,121,0.0,0.0,100,0.00,,,-99.99,rabbit1wire,2013-12-14 01:48:00,
2013-12-13 20:50:00,14.1,7.9,30.40,North,2,1.0,1.8,75,0.00,,,-99.99,rabbit1wire,2013-12-14 01:50:00,
2013-12-13 20:54:00,15.6,15.6,30.09,SE,139,0.0,0.0,100,0.00,,,-99.99,rabbit1wire,2013-12-14 01:54:00,
2013-12-13 20:56:00,13.7,7.6,30.42,NNW,343,1.8,6.4,76,0.00,,,-99.99,rabbit1wire,2013-12-14 01:56:00,
2013-12-13 20:59:00,15.7,15.7,30.04,SE,137,0.0,0.0,100,0.00,,,-99.99,rabbit1wire,2013-12-14 01:59:00,
2013-12-13 21:01:00,13.7,8.0,30.42,NNW,334,2.7,4.8,77,0.00,,,-99.99,rabbit1wire,2013-12-14 02:01:00,
2013-12-13 21:05:00,15.9,15.9,30.07,SE,143,0.0,0.0,100,0.00,,,-99.99,rabbit1wire,2013-12-14 02:05:00,
2013-12-13 21:06:00,13.8,8.0,30.40,NNW,331,2.0,4.1,76,0.00,,,-99.99,rabbit1wire,2013-12-14 02:06:00,
2013-12-13 21:10:00,15.9,15.9,30.02,SE,134,0.0,0.0,100,0.00,,,-99.99,rabbit1wire,2013-12-14 02:10:00,
2013-12-13 21:12:00,13.8,8.0,30.44,NW,325,1.2,3.8,77,0.00,,,-99.99,rabbit1wire,2013-12-14 02:12:00,
2013-12-13 21:16:00,15.9,15.9,30.02,East,97,0.0,0.0,100,0.00,,,-99.99,rabbit1wire,2013-12-14 02:16:00,
2013-12-13 21:17:00,13.8,8.2,30.42,NW,322,1.0,1.4,77,0.00,,,-99.99,rabbit1wire,2013-12-14 02:17:00,
2013-12-13 21:21:00,15.9,15.9,30.02,East,92,0.0,0.0,100,0.00,,,-99.99,rabbit1wire,2013-12-14 02:21:00,
2013-12-13 21:22:00,13.8,8.3,30.43,NW,306,0.7,1.5,77,0.00,,,-99.99,rabbit1wire,2013-12-14 02:22:00,
2013-12-13 21:27:00,15.9,15.9,30.04,ESE,111,0.0,0.0,100,0.00,,,-99.99,rabbit1wire,2013-12-14 02:27:00,
2013-12-13 21:28:00,13.9,8.4,30.43,NW,325,0.8,3.1,78,0.00,,,-99.99,rabbit1wire,2013-12-14 02:28:00,
2013-12-13 21:32:00,15.8,15.8,30.01,ESE,107,0.0,0.0,100,0.00,,,-99.99,rabbit1wire,2013-12-14 02:32:00,
2013-12-13 21:33:00,13.7,8.4,30.43,NW,322,1.2,2.0,78,0.00,,,-99.99,rabbit1wire,2013-12-14 02:33:00,
2013-12-13 21:37:00,15.6,15.6,30.01,ESE,108,0.0,0.0,100,0.00,,,-99.99,rabbit1wire,2013-12-14 02:37:00,
2013-12-13 21:38:00,13.7,8.4,30.42,NNW,328,0.8,4.2,79,0.00,,,-99.99,rabbit1wire,2013-12-14 02:38:00,
2013-12-13 21:43:00,15.4,15.4,29.99,ESE,105,0.0,0.0,100,0.00,,,-99.99,rabbit1wire,2013-12-14 02:43:00,
2013-12-13 21:44:00,13.8,8.6,30.43,NNW,330,1.5,2.0,79,0.00,,,-99.99,rabbit1wire,2013-12-14 02:44:00,
2013-12-13 21:48:00,15.2,15.2,30.01,East,94,0.0,0.0,100,0.00,,,-99.99,rabbit1wire,2013-12-14 02:48:00,
2013-12-13 21:49:00,13.6,8.6,30.42,NW,323,1.0,5.1,80,0.00,,,-99.99,rabbit1wire,2013-12-14 02:49:00,
2013-12-13 21:55:00,13.6,8.8,30.42,NNW,339,3.1,4.6,80,0.00,,,-99.99,rabbit1wire,2013-12-14 02:55:00,
2013-12-13 22:00:00,13.6,8.9,30.43,NNW,347,3.4,5.1,81,0.00,,,-99.99,rabbit1wire,2013-12-14 03:00:00,
2013-12-13 22:06:00,13.7,9.1,30.43,NNW,338,2.5,4.2,81,0.00,,,-99.99,rabbit1wire,2013-12-14 03:06:00,
2013-12-13 22:11:00,13.6,9.1,30.43,NNW,342,1.9,3.5,82,0.00,,,-99.99,rabbit1wire,2013-12-14 03:11:00,
2013-12-13 22:16:00,13.4,8.9,30.45,NNW,338,1.8,3.7,81,0.00,,,-99.99,rabbit1wire,2013-12-14 03:16:00,
2013-12-13 22:22:00,13.7,9.1,30.43,NNW,344,0.9,1.9,81,0.00,,,-99.99,rabbit1wire,2013-12-14 03:22:00,
2013-12-13 22:27:00,13.5,8.9,30.43,North,359,1.3,2.1,81,0.00,,,-99.99,rabbit1wire,2013-12-14 03:27:00,
2013-12-13 22:33:00,13.6,9.1,30.45,North,4,1.2,2.8,81,0.00,,,-99.99,rabbit1wire,2013-12-14 03:33:00,
2013-12-13 22:38:00,13.6,8.9,30.42,NW,322,0.7,1.5,81,0.00,,,-99.99,rabbit1wire,2013-12-14 03:38:00,
2013-12-13 22:43:00,13.6,9.1,30.47,North,5,0.9,1.6,81,0.00,,,-99.99,rabbit1wire,2013-12-14 03:43:00,
2013-12-13 22:49:00,13.6,9.1,30.47,North,357,1.1,3.3,82,0.00,,,-99.99,rabbit1wire,2013-12-14 03:49:00,
2013-12-13 22:54:00,13.7,9.3,30.47,North,359,1.9,3.7,82,0.00,,,-99.99,rabbit1wire,2013-12-14 03:54:00,
2013-12-13 23:00:00,13.4,9.3,30.48,North,352,2.8,4.3,83,0.00,,,-99.99,rabbit1wire,2013-12-14 04:00:00,
2013-12-13 23:05:00,13.4,9.4,30.47,North,2,4.6,5.4,83,0.00,,,-99.99,rabbit1wire,2013-12-14 04:05:00,
2013-12-13 23:11:00,13.2,9.8,30.50,North,357,5.0,5.7,86,0.00,,,-99.99,rabbit1wire,2013-12-14 04:11:00,
2013-12-13 23:16:00,13.1,9.9,30.47,North,359,4.9,5.7,86,0.00,,,-99.99,rabbit1wire,2013-12-14 04:16:00,
2013-12-13 23:21:00,12.9,9.6,30.48,North,7,4.2,4.9,86,0.00,,,-99.99,rabbit1wire,2013-12-14 04:21:00,
2013-12-13 23:27:00,12.8,9.3,30.47,North,8,3.0,3.8,85,0.00,,,-99.99,rabbit1wire,2013-12-14 04:27:00,
2013-12-13 23:32:00,12.7,9.2,30.47,NNE,13,1.8,3.0,85,0.00,,,-99.99,rabbit1wire,2013-12-14 04:32:00,
2013-12-13 23:37:00,12.5,8.8,30.48,North,10,2.0,2.3,84,0.00,,,-99.99,rabbit1wire,2013-12-14 04:37:00,
2013-12-13 23:42:00,12.2,8.4,30.48,NNE,12,1.2,3.4,84,0.00,,,-99.99,rabbit1wire,2013-12-14 04:42:00,
2013-12-13 23:48:00,12.0,8.2,30.48,NNE,15,2.2,3.4,84,0.00,,,-99.99,rabbit1wire,2013-12-14 04:48:00,
2013-12-13 23:53:00,12.0,8.1,30.50,North,10,2.6,4.2,84,0.00,,,-99.99,rabbit1wire,2013-12-14 04:53:00,
2013-12-13 23:58:00,11.8,7.8,30.47,North,11,2.9,3.8,83,0.00,,,-99.99,rabbit1wire,2013-12-14 04:58:00,